Impacts TAF Board INFO
FOR SITUATIONAL AWARENESS. NOT TO BE USED FOR FLIGHT PLANNING PURPOSES.
IDs:

KCSG - Columbus Arpt, GA, US

Issued at 0534 UTC 23 Feb 2018
Updated at 1036 UTC 23 Feb 2018
Potential Impact None Slight Moderate High
Time<<23/23Z 24/00Z 24/01Z 24/02Z 24/03Z 24/04Z 24/05Z 24/06Z 24/07Z 24/08Z 24/09Z 24/10Z 24/11Z>>
Type PRVL PRVL PRVL PRVL PRVL PRVL PRVL
VIS >6 >6 >6 >6 >6 >6 >6
CIG 45 120 120 120 120 120 100
Cover BKN BKN BKN BKN BKN BKN OVC
FltCat VFR VFR VFR VFR VFR VFR VFR
WX -- -- -- -- -- -- --
WDir 170 160 160 160 160 160 130
WSpd 9 7 7 7 7 7 4
WGst -- -- -- -- -- -- --

Raw TAF
KCSG 230534Z 2306/2406 15003KT P6SM SCT100
  FM230900 15004KT 5SM BR SCT015 SCT050
  FM231000 12006KT 4SM BR SCT005 BKN050
  TEMPO 2312/2315 13007KT BKN020
  FM231600 15008KT P6SM BKN030
  FM231800 17009KT P6SM BKN045 BKN100
  FM240000 16007KT P6SM SCT040 BKN120
  FM240500 13004KT P6SM OVC100


METAR Board
Radar Display
Forecast Discussion

FOR SITUATIONAL AWARENESS. NOT TO BE USED FOR FLIGHT PLANNING PURPOSES.